Time;durP1;ratioP1;P1;durP2;ratioP2;P2;SDS_P1;SDS_P2;PMS_P1;PMS_P2;Temp;Humidity;BMP_temperature;BMP_pressure;BME280_temperature;BME280_humidity;BME280_pressure;Samples;Min_cycle;Max_cycle;Signal;HPM_P1;HPM_P2
2021/06/02 00:00:32;;;;;;;11.00;0.90;;;;;;;15.30;71.81;101287.53;5033440;28;20944;-69
2021/06/02 00:03:00;;;;;;;0.60;0.43;;;;;;;15.33;71.81;101292.34;5033283;28;20467;-69
2021/06/02 00:05:28;;;;;;;0.80;0.60;;;;;;;15.34;71.61;101294.75;5033473;28;20516;-70
2021/06/02 00:07:55;;;;;;;1.40;0.63;;;;;;;15.41;71.57;101298.97;5033398;28;20542;-69
2021/06/02 00:10:21;;;;;;;1.73;0.50;;;;;;;15.41;71.88;101294.31;5039672;28;20447;-70
2021/06/02 00:12:48;;;;;;;1.20;0.53;;;;;;;15.41;72.21;101293.50;5033114;28;20486;-70
2021/06/02 00:15:14;;;;;;;0.70;0.60;;;;;;;15.39;72.18;101286.44;5033445;28;20443;-70
2021/06/02 00:17:41;;;;;;;1.90;0.90;;;;;;;15.36;72.74;101287.06;5032267;28;20957;-70
2021/06/02 00:20:09;;;;;;;1.10;0.50;;;;;;;15.28;73.12;101293.31;5033253;28;20454;-69
2021/06/02 00:22:35;;;;;;;1.27;0.60;;;;;;;15.28;73.50;101285.13;5032614;28;20483;-69
2021/06/02 00:25:04;;;;;;;1.20;0.70;;;;;;;15.29;73.94;101296.84;5033249;28;20447;-69
2021/06/02 00:27:31;;;;;;;1.50;0.80;;;;;;;15.20;74.30;101283.16;5033194;28;20454;-69
2021/06/02 00:30:02;;;;;;;1.00;0.80;;;;;;;15.22;74.23;101285.56;5033202;28;20440;-69
2021/06/02 00:32:29;;;;;;;1.10;0.90;;;;;;;15.19;74.66;101286.22;5032681;28;20927;-69
2021/06/02 00:34:55;;;;;;;0.77;0.53;;;;;;;15.16;74.22;101279.44;5033135;28;20443;-69
2021/06/02 00:37:22;;;;;;;0.77;0.77;;;;;;;15.13;74.47;101282.78;5033090;28;20447;-68
2021/06/02 00:39:48;;;;;;;0.93;0.53;;;;;;;15.08;74.83;101282.94;5033016;28;20443;-69
2021/06/02 00:42:16;;;;;;;1.30;0.77;;;;;;;15.15;73.64;101291.47;5033037;28;20467;-69
2021/06/02 00:44:42;;;;;;;0.73;0.53;;;;;;;15.05;72.44;101280.81;5032994;28;20451;-70
2021/06/02 00:47:08;;;;;;;0.97;0.67;;;;;;;14.98;73.51;101284.00;5032942;28;20439;-69
2021/06/02 00:49:34;;;;;;;1.23;0.63;;;;;;;14.84;73.39;101291.47;5033253;28;20439;-70
2021/06/02 00:52:02;;;;;;;2.77;1.10;;;;;;;14.87;74.39;101286.22;5032786;28;20490;-69
2021/06/02 00:54:31;;;;;;;1.47;0.80;;;;;;;14.92;74.98;101287.19;5032922;28;20447;-69
2021/06/02 00:57:03;;;;;;;2.20;0.80;;;;;;;14.99;74.83;101293.00;5032888;28;20450;-69
2021/06/02 00:59:33;;;;;;;0.70;0.70;;;;;;;14.96;74.89;101293.63;5032946;28;20438;-69
2021/06/02 01:02:00;;;;;;;0.70;0.50;;;;;;;15.00;75.57;101292.69;5032773;28;20461;-69
2021/06/02 01:04:28;;;;;;;1.10;0.73;;;;;;;14.97;75.76;101306.97;5032781;28;20810;-69
2021/06/02 01:06:54;;;;;;;5.33;0.80;;;;;;;14.94;75.42;101310.31;5032708;28;20850;-69
2021/06/02 01:09:22;;;;;;;1.90;1.03;;;;;;;14.96;75.14;101307.25;5032750;28;20443;-69
2021/06/02 01:11:49;;;;;;;2.07;0.70;;;;;;;14.98;74.94;101307.78;5032578;28;20490;-70
2021/06/02 01:14:15;;;;;;;9.70;1.33;;;;;;;15.03;75.04;101310.34;5032717;28;20474;-69
2021/06/02 01:16:43;;;;;;;0.77;0.60;;;;;;;15.01;74.20;101302.50;5032665;28;20454;-69
2021/06/02 01:19:10;;;;;;;1.23;0.50;;;;;;;14.99;74.21;101306.66;5032725;28;20443;-69
2021/06/02 01:21:41;;;;;;;0.67;0.50;;;;;;;14.96;74.42;101307.25;5056848;22;20995;-67
2021/06/02 01:24:08;;;;;;;1.13;1.00;;;;;;;14.87;74.92;101310.75;5032803;28;21000;-67
2021/06/02 01:26:36;;;;;;;0.60;0.50;;;;;;;14.81;74.88;101308.47;5032358;28;20453;-66
2021/06/02 01:29:02;;;;;;;0.60;0.50;;;;;;;14.79;74.55;101310.72;5033842;28;20465;-67
2021/06/02 01:31:44;;;;;;;5.00;0.97;;;;;;;14.82;74.59;101310.06;5036193;28;20516;-67
2021/06/02 01:34:27;;;;;;;0.80;0.60;;;;;;;14.83;75.21;101311.69;5036165;28;20435;-66
2021/06/02 01:37:16;;;;;;;1.10;0.50;;;;;;;14.81;74.84;101306.53;5035996;28;20423;-67
2021/06/02 01:40:07;;;;;;;4.73;0.70;;;;;;;14.77;74.74;101297.38;5033710;28;20509;-67
2021/06/02 01:42:44;;;;;;;0.90;0.60;;;;;;;14.74;75.00;101300.75;5035746;28;21049;-66
2021/06/02 01:45:44;;;;;;;1.33;0.80;;;;;;;14.55;74.70;101294.66;5036141;28;20447;-67
2021/06/02 01:48:33;;;;;;;0.70;0.60;;;;;;;14.54;74.57;101303.97;5036197;28;20427;-68
2021/06/02 01:51:24;;;;;;;2.03;0.70;;;;;;;14.50;74.17;101309.22;5035880;28;20443;-66
2021/06/02 01:54:06;;;;;;;1.30;0.87;;;;;;;14.22;74.67;101307.69;5035707;28;20920;-65
2021/06/02 01:57:09;;;;;;;1.77;0.90;;;;;;;14.25;74.99;101310.59;5035912;28;20428;-64
2021/06/02 02:00:05;;;;;;;0.60;0.50;;;;;;;14.27;76.51;101308.38;5035900;28;20431;-64
2021/06/02 02:03:06;;;;;;;1.53;1.07;;;;;;;14.25;76.89;101307.06;5035375;28;21058;-65
2021/06/02 02:06:08;;;;;;;3.03;1.20;;;;;;;14.24;76.91;101305.44;5035989;28;20427;-65
2021/06/02 02:08:42;;;;;;;1.50;1.00;;;;;;;14.20;77.57;101305.25;5018400;28;20536;-65
2021/06/02 02:11:23;;;;;;;1.77;1.20;;;;;;;14.18;77.67;101312.94;5035498;28;20468;-65
2021/06/02 02:14:02;;;;;;;3.37;0.93;;;;;;;14.07;77.79;101314.28;5035581;28;20423;-65
2021/06/02 02:16:36;;;;;;;1.10;0.70;;;;;;;14.04;78.04;101312.97;5035594;28;20427;-65
2021/06/02 02:19:41;;;;;;;6.60;1.00;;;;;;;14.05;78.05;101316.50;5035422;28;20427;-64
2021/06/02 02:22:19;;;;;;;4.10;1.23;;;;;;;13.92;78.31;101320.06;4974166;28;21292;-65
2021/06/02 02:24:50;;;;;;;10.73;1.30;;;;;;;13.94;78.57;101326.81;4974466;28;20465;-65
2021/06/02 02:27:32;;;;;;;0.83;0.80;;;;;;;13.92;79.03;101325.50;5007807;28;20447;-65
2021/06/02 02:30:05;;;;;;;1.20;1.07;;;;;;;13.85;79.37;101321.25;5034945;28;20901;-66
2021/06/02 02:32:51;;;;;;;1.27;0.97;;;;;;;13.82;79.08;101332.78;5034972;28;20479;-65
2021/06/02 02:35:45;;;;;;;1.00;0.80;;;;;;;13.79;79.03;101332.59;5035198;28;20424;-65
2021/06/02 02:38:25;;;;;;;1.00;0.90;;;;;;;13.76;78.47;101333.19;5035174;28;20431;-65
2021/06/02 02:41:00;;;;;;;3.07;2.20;;;;;;;13.71;78.82;101334.09;5034274;28;20427;-65
2021/06/02 02:43:39;;;;;;;1.73;1.47;;;;;;;13.64;79.79;101325.53;5035004;28;20463;-65
2021/06/02 02:46:10;;;;;;;1.83;1.50;;;;;;;13.65;80.09;101334.50;5034838;28;20433;-65
2021/06/02 02:48:47;;;;;;;1.77;0.97;;;;;;;13.64;80.78;101331.00;5034900;28;20435;-65
2021/06/02 02:51:25;;;;;;;2.10;1.37;;;;;;;13.59;80.85;101334.63;5034619;28;20466;-65
2021/06/02 02:54:01;;;;;;;1.97;1.30;;;;;;;13.51;81.67;101337.25;5034845;28;20616;-63
2021/06/02 02:56:37;;;;;;;1.37;1.27;;;;;;;13.47;81.84;101322.63;5034775;28;20459;-64
2021/06/02 02:59:09;;;;;;;3.63;2.40;;;;;;;13.37;82.42;101334.50;5034755;28;20427;-67
2021/06/02 03:01:45;;;;;;;2.53;1.17;;;;;;;13.41;82.63;101334.69;5034347;28;20980;-67
2021/06/02 03:04:17;;;;;;;1.87;1.20;;;;;;;13.44;82.86;101331.38;5034680;28;20431;-67
2021/06/02 03:06:48;;;;;;;2.47;1.80;;;;;;;13.45;82.97;101330.25;5034483;28;20462;-67
2021/06/02 03:09:22;;;;;;;3.20;1.80;;;;;;;13.41;83.45;101334.69;5034492;28;20423;-67
2021/06/02 03:11:54;;;;;;;2.70;1.93;;;;;;;13.37;83.72;101338.03;5034312;28;20860;-67
2021/06/02 03:14:23;;;;;;;3.77;1.63;;;;;;;13.31;84.29;101336.50;5034511;28;20424;-67
2021/06/02 03:16:55;;;;;;;1.17;1.07;;;;;;;13.28;82.89;101344.44;5034287;28;20447;-67
2021/06/02 03:19:31;;;;;;;2.80;1.47;;;;;;;13.29;83.01;101346.91;5034265;28;20605;-67
2021/06/02 03:22:02;;;;;;;2.63;1.47;;;;;;;13.29;82.87;101346.09;5034061;28;20566;-68
2021/06/02 03:24:45;;;;;;;1.50;0.93;;;;;;;13.28;82.64;101355.34;5033980;28;20955;-67
2021/06/02 03:27:17;;;;;;;3.80;2.00;;;;;;;13.19;83.39;101343.50;5034245;28;20424;-67
2021/06/02 03:29:55;;;;;;;6.27;3.23;;;;;;;13.18;84.62;101342.69;5034131;28;20423;-67
2021/06/02 03:32:46;;;;;;;4.50;1.57;;;;;;;13.13;85.86;101354.47;5034240;28;20486;-67
2021/06/02 03:35:16;;;;;;;4.60;2.30;;;;;;;13.17;86.00;101357.41;5033980;28;20432;-67
2021/06/02 03:37:53;;;;;;;1.67;1.37;;;;;;;13.22;86.13;101357.34;5033945;28;20450;-67
2021/06/02 03:40:33;;;;;;;3.53;1.73;;;;;;;13.24;86.11;101359.78;5034020;28;20432;-67
2021/06/02 03:43:08;;;;;;;2.50;1.43;;;;;;;13.30;86.15;101353.94;5033804;28;20466;-67
2021/06/02 03:45:51;;;;;;;2.53;2.00;;;;;;;13.30;86.19;101356.66;5034130;28;20518;-67
2021/06/02 03:48:50;;;;;;;2.27;1.60;;;;;;;13.37;86.00;101354.38;5033810;28;20464;-67
2021/06/02 03:51:26;;;;;;;6.23;2.33;;;;;;;13.39;85.74;101356.78;5021323;28;20889;-67
2021/06/02 03:54:07;;;;;;;2.90;1.57;;;;;;;13.42;85.87;101369.00;5033791;28;20439;-67
2021/06/02 03:56:54;;;;;;;2.73;1.90;;;;;;;13.45;86.15;101365.66;5033633;28;20909;-67
2021/06/02 03:59:31;;;;;;;2.07;1.80;;;;;;;13.51;85.97;101370.72;5033627;28;20435;-67
2021/06/02 04:02:02;;;;;;;2.97;2.27;;;;;;;13.55;85.94;101365.47;5033530;28;20460;-67
2021/06/02 04:04:34;;;;;;;2.43;1.87;;;;;;;13.60;85.68;101368.09;5033577;28;20449;-67
2021/06/02 04:07:04;;;;;;;2.20;1.67;;;;;;;13.64;85.27;101363.66;5033617;28;20480;-68
2021/06/02 04:09:40;;;;;;;1.83;1.63;;;;;;;13.64;85.25;101358.22;5033595;28;20774;-67
2021/06/02 04:12:19;;;;;;;2.70;2.00;;;;;;;13.58;85.61;101353.97;5033306;28;20486;-65
2021/06/02 04:14:54;;;;;;;2.70;1.77;;;;;;;13.52;84.88;101357.91;5033368;28;20431;-67
2021/06/02 04:17:22;;;;;;;3.73;1.40;;;;;;;13.54;84.45;101359.19;5033457;28;20457;-67
2021/06/02 04:19:51;;;;;;;1.50;1.40;;;;;;;13.54;83.78;101358.38;5033387;28;20512;-67
2021/06/02 04:22:19;;;;;;;1.97;1.73;;;;;;;13.46;83.46;101359.09;5033058;28;20479;-67
2021/06/02 04:24:46;;;;;;;2.20;1.27;;;;;;;13.37;84.05;101359.81;5033325;28;20443;-67
2021/06/02 04:27:14;;;;;;;1.37;1.00;;;;;;;13.35;85.68;101364.72;5033148;28;20435;-67
2021/06/02 04:29:45;;;;;;;2.93;1.70;;;;;;;13.36;86.34;101358.19;5033312;28;20454;-67
2021/06/02 04:32:11;;;;;;;1.90;1.67;;;;;;;13.42;86.77;101361.63;5033160;28;20518;-66
2021/06/02 04:34:37;;;;;;;1.80;1.20;;;;;;;13.47;86.68;101360.72;5032808;28;20481;-67
2021/06/02 04:37:07;;;;;;;1.80;1.47;;;;;;;13.51;86.62;101356.28;5032793;28;20971;-67
2021/06/02 04:39:36;;;;;;;2.37;1.90;;;;;;;13.55;86.50;101349.16;5032830;28;20442;-66
2021/06/02 04:42:04;;;;;;;2.43;1.60;;;;;;;13.57;86.67;101357.81;5032971;28;20467;-67
2021/06/02 04:44:32;;;;;;;3.10;1.83;;;;;;;13.61;86.72;101350.66;5033133;28;20443;-66
2021/06/02 04:46:58;;;;;;;3.50;2.00;;;;;;;13.62;86.43;101357.69;5032770;28;20792;-66
2021/06/02 04:49:33;;;;;;;4.87;2.00;;;;;;;13.63;86.61;101364.75;5032870;28;20807;-67
2021/06/02 04:52:47;;;;;;;2.30;1.60;;;;;;;13.67;86.74;101364.94;5032911;28;20490;-66
2021/06/02 04:55:33;;;;;;;3.80;2.07;;;;;;;13.69;86.63;101377.16;4997569;28;20462;-66
2021/06/02 04:58:28;;;;;;;3.90;1.90;;;;;;;13.75;86.48;101362.34;5033051;28;20462;-66
2021/06/02 05:01:34;;;;;;;5.20;2.53;;;;;;;13.78;86.10;101371.81;5032964;28;20841;-66
2021/06/02 05:04:35;;;;;;;4.03;2.40;;;;;;;13.83;86.18;101377.16;5033699;28;20901;-67
2021/06/02 05:07:42;;;;;;;2.20;1.43;;;;;;;13.80;86.43;101378.56;5036742;28;20448;-67
2021/06/02 05:10:54;;;;;;;2.00;1.50;;;;;;;13.85;86.15;101386.63;5036752;28;20443;-67
2021/06/02 05:14:11;;;;;;;2.30;1.53;;;;;;;13.82;86.31;101389.97;5036652;28;20512;-67
2021/06/02 05:16:44;;;;;;;3.67;2.00;;;;;;;13.75;84.91;101392.28;5036395;28;20443;-64
2021/06/02 05:19:56;;;;;;;2.63;1.70;;;;;;;13.72;84.16;101389.34;5036648;28;20478;-63
2021/06/02 05:23:04;;;;;;;3.17;2.57;;;;;;;13.71;84.35;101388.56;5035781;28;20482;-64
2021/06/02 05:26:03;;;;;;;2.07;1.87;;;;;;;13.68;85.41;101391.91;5035249;28;20439;-64
2021/06/02 05:29:02;;;;;;;3.90;1.60;;;;;;;13.70;86.37;101399.75;5035176;28;20485;-62
2021/06/02 05:31:55;;;;;;;2.53;2.30;;;;;;;13.65;86.56;101399.84;5035068;28;20423;-63
2021/06/02 05:34:57;;;;;;;1.50;1.37;;;;;;;13.68;86.92;101397.34;5035145;28;20427;-62
2021/06/02 05:38:07;;;;;;;3.80;2.20;;;;;;;13.77;87.10;101400.97;5026281;28;20469;-62
2021/06/02 05:40:46;;;;;;;4.67;1.97;;;;;;;13.82;86.89;101403.59;5015767;28;20443;-62
2021/06/02 05:44:05;;;;;;;3.40;1.87;;;;;;;13.95;86.80;101398.44;5034801;28;20459;-63
2021/06/02 05:47:07;;;;;;;8.13;1.87;;;;;;;14.15;86.82;101406.19;5034777;28;20952;-62
2021/06/02 05:50:05;;;;;;;2.63;1.73;;;;;;;14.34;85.96;101406.03;5034882;28;20446;-62
2021/06/02 05:52:43;;;;;;;2.43;1.70;;;;;;;14.50;85.67;101406.56;5001695;28;20495;-62
2021/06/02 05:55:46;;;;;;;12.60;1.67;;;;;;;14.70;84.40;101410.72;5034744;28;20432;-62
2021/06/02 05:58:47;;;;;;;2.47;1.67;;;;;;;14.88;83.22;101415.22;5034326;28;20803;-61
2021/06/02 06:01:52;;;;;;;4.00;1.63;;;;;;;14.97;83.02;101418.81;5034677;28;20477;-61
2021/06/02 06:05:02;;;;;;;3.23;1.80;;;;;;;14.97;81.75;101426.22;5032377;28;20451;-62
2021/06/02 06:08:01;;;;;;;4.87;2.03;;;;;;;14.85;80.20;101435.72;5034554;28;20420;-62
2021/06/02 06:10:46;;;;;;;3.50;2.10;;;;;;;14.89;80.14;101439.47;5034526;28;20451;-64
2021/06/02 06:13:36;;;;;;;2.90;1.83;;;;;;;14.80;80.83;101435.06;5034408;28;20537;-66
2021/06/02 06:16:26;;;;;;;2.50;1.77;;;;;;;14.89;81.56;101436.72;5033209;28;20431;-65
2021/06/02 06:19:25;;;;;;;2.10;1.63;;;;;;;14.98;82.00;101441.44;5034361;28;20428;-66
2021/06/02 06:22:18;;;;;;;2.72;1.67;;;;;;;15.03;81.78;101438.59;4974033;28;1035739;-65
2021/06/02 06:24:50;;;;;;;3.53;1.97;;;;;;;15.03;82.10;101435.88;5035356;28;20189;-66
2021/06/02 06:27:25;;;;;;;3.60;2.37;;;;;;;15.03;82.58;101438.59;5035329;28;20416;-65
2021/06/02 06:29:57;;;;;;;3.90;2.10;;;;;;;15.05;83.21;101433.63;5034935;28;20912;-65
2021/06/02 06:32:26;;;;;;;2.97;1.80;;;;;;;15.05;82.78;101439.06;5035321;28;20866;-65
2021/06/02 06:34:54;;;;;;;4.80;1.53;;;;;;;14.99;83.31;101440.31;5035059;28;20533;-65
2021/06/02 06:37:21;;;;;;;4.03;1.90;;;;;;;15.13;83.18;101441.88;5034777;28;20445;-64
2021/06/02 06:39:50;;;;;;;1.60;1.23;;;;;;;15.27;82.77;101447.28;5035107;28;20497;-65
2021/06/02 06:42:22;;;;;;;2.27;1.90;;;;;;;15.34;81.50;101444.09;5034952;28;20459;-65
2021/06/02 06:44:51;;;;;;;2.43;1.60;;;;;;;15.34;80.28;101447.63;5034969;28;20430;-65
2021/06/02 06:47:19;;;;;;;2.00;1.63;;;;;;;15.33;80.16;101446.03;5034862;28;20447;-65
2021/06/02 06:49:48;;;;;;;1.87;1.40;;;;;;;15.43;80.93;101444.97;5034793;28;20454;-65
2021/06/02 06:52:15;;;;;;;6.20;1.90;;;;;;;15.56;81.21;101448.72;5034725;28;20487;-65
2021/06/02 06:54:42;;;;;;;1.77;1.67;;;;;;;15.58;81.92;101447.31;5034709;28;20439;-65
2021/06/02 06:57:08;;;;;;;3.90;1.67;;;;;;;15.65;81.45;101441.41;5034449;28;20948;-64
2021/06/02 06:59:36;;;;;;;2.80;2.10;;;;;;;15.75;81.08;101446.59;5034383;28;20847;-65
2021/06/02 07:02:03;;;;;;;2.43;1.50;;;;;;;15.86;80.82;101456.13;5034557;28;20459;-64
2021/06/02 07:04:33;;;;;;;1.53;1.40;;;;;;;15.91;79.82;101443.47;5034699;28;20432;-63
2021/06/02 07:06:59;;;;;;;2.60;2.03;;;;;;;15.94;79.19;101440.06;5034643;28;20449;-64
2021/06/02 07:09:25;;;;;;;4.60;1.50;;;;;;;16.03;80.00;101441.72;5034289;28;20447;-64
2021/06/02 07:11:54;;;;;;;2.50;1.83;;;;;;;16.07;80.24;101431.78;5034112;28;21075;-64
2021/06/02 07:14:24;;;;;;;1.70;1.40;;;;;;;16.13;80.06;101440.63;5034461;28;20443;-65
2021/06/02 07:16:53;;;;;;;3.40;1.80;;;;;;;16.27;79.28;101437.78;5034785;28;20427;-62
2021/06/02 07:19:21;;;;;;;1.80;1.27;;;;;;;16.30;78.90;101429.75;5034493;28;20527;-60
2021/06/02 07:21:48;;;;;;;2.80;1.90;;;;;;;16.33;78.95;101434.56;5033746;28;20828;-60
2021/06/02 07:24:17;;;;;;;3.40;1.67;;;;;;;16.40;78.47;101432.16;5034375;28;20427;-60
2021/06/02 07:26:44;;;;;;;2.03;1.50;;;;;;;16.44;78.33;101434.28;5033716;28;20505;-60
2021/06/02 07:29:10;;;;;;;2.50;1.97;;;;;;;16.47;77.85;101433.59;5033903;28;20451;-59
2021/06/02 07:31:36;;;;;;;1.60;1.30;;;;;;;16.54;77.72;101425.75;5033829;28;21051;-61
2021/06/02 07:34:05;;;;;;;2.00;1.40;;;;;;;16.56;78.60;101426.25;5034048;28;20442;-61
2021/06/02 07:36:32;;;;;;;1.13;1.03;;;;;;;16.63;78.52;101426.56;5033831;28;20518;-61
2021/06/02 07:38:58;;;;;;;2.77;1.80;;;;;;;16.61;77.91;101426.09;5034239;28;20443;-61
2021/06/02 07:41:24;;;;;;;2.60;1.80;;;;;;;16.69;78.14;101424.47;5033971;28;20443;-61
2021/06/02 07:43:50;;;;;;;7.10;2.50;;;;;;;16.74;78.07;101422.41;5033658;28;20991;-62
2021/06/02 07:46:17;;;;;;;2.57;1.73;;;;;;;16.89;78.24;101432.06;5033863;28;20443;-61
2021/06/02 07:48:43;;;;;;;1.93;1.43;;;;;;;16.99;77.94;101428.19;5059053;22;20550;-65
2021/06/02 07:51:10;;;;;;;2.70;1.83;;;;;;;17.06;78.02;101431.25;5033651;28;20450;-68
2021/06/02 07:53:36;;;;;;;2.03;1.80;;;;;;;17.11;78.39;101431.06;5041498;28;20494;-68
2021/06/02 07:56:02;;;;;;;3.63;2.20;;;;;;;17.25;77.50;101431.69;5034516;28;21036;-71
2021/06/02 07:58:28;;;;;;;2.87;1.70;;;;;;;17.29;77.54;101424.44;5033616;28;20501;-70
2021/06/02 08:00:54;;;;;;;4.57;1.90;;;;;;;17.36;77.93;101430.22;5033557;28;20439;-71
2021/06/02 08:03:20;;;;;;;2.97;2.07;;;;;;;17.47;77.32;101436.16;5033495;28;20432;-69
2021/06/02 08:05:46;;;;;;;2.37;1.87;;;;;;;17.60;76.67;101431.59;5032419;28;20470;-67
2021/06/02 08:08:13;;;;;;;2.37;1.57;;;;;;;17.61;76.16;101431.25;5033240;28;20446;-70
2021/06/02 08:10:39;;;;;;;2.40;1.67;;;;;;;17.71;76.36;101437.50;5033622;28;20518;-70
2021/06/02 08:13:05;;;;;;;2.60;1.50;;;;;;;17.83;76.52;101434.91;5032478;28;20540;-71
2021/06/02 08:15:32;;;;;;;2.50;1.53;;;;;;;17.88;74.90;101435.56;5033172;28;20450;-70
2021/06/02 08:17:58;;;;;;;2.00;1.50;;;;;;;18.01;75.25;101430.97;5033108;28;20585;-70
2021/06/02 08:20:24;;;;;;;2.87;2.10;;;;;;;18.13;75.64;101431.06;5033147;28;20486;-70
2021/06/02 08:22:50;;;;;;;1.73;1.37;;;;;;;18.08;74.47;101424.97;5033389;28;20439;-69
2021/06/02 08:25:18;;;;;;;2.13;1.37;;;;;;;18.22;75.17;101430.22;5033162;28;20448;-71
2021/06/02 08:27:46;;;;;;;1.70;1.50;;;;;;;18.36;75.17;101430.75;5033126;28;20447;-70
2021/06/02 08:30:13;;;;;;;2.77;1.73;;;;;;;18.39;74.88;101435.59;5033146;28;20654;-71
2021/06/02 08:32:40;;;;;;;2.33;1.63;;;;;;;18.47;75.30;101436.69;5033027;28;20496;-70
2021/06/02 08:35:08;;;;;;;3.73;2.10;;;;;;;18.58;75.05;101432.38;5033129;28;20522;-71
2021/06/02 08:37:35;;;;;;;1.57;1.17;;;;;;;18.69;73.39;101422.66;5033015;28;20459;-70
2021/06/02 08:40:01;;;;;;;3.07;1.93;;;;;;;18.77;73.88;101431.94;5035919;28;20530;-70
2021/06/02 08:42:29;;;;;;;2.43;1.93;;;;;;;18.89;74.36;101423.75;5037110;28;20447;-70
2021/06/02 08:44:55;;;;;;;2.03;1.40;;;;;;;19.02;73.71;101424.63;5037150;28;20533;-70
2021/06/02 08:47:21;;;;;;;2.30;2.03;;;;;;;19.17;73.57;101426.75;5037106;28;20496;-71
2021/06/02 08:49:48;;;;;;;3.23;2.10;;;;;;;19.28;72.83;101427.09;5037156;28;20475;-72
2021/06/02 08:52:14;;;;;;;3.00;1.87;;;;;;;19.42;72.69;101427.59;5036885;28;20995;-69
2021/06/02 08:54:40;;;;;;;1.73;1.50;;;;;;;19.48;71.15;101431.75;5036743;28;20457;-70
2021/06/02 08:57:08;;;;;;;1.70;1.57;;;;;;;19.58;72.18;101425.78;5037175;28;20944;-71
2021/06/02 08:59:36;;;;;;;3.30;1.90;;;;;;;19.68;71.50;101418.28;5036614;28;20886;-70
2021/06/02 09:02:02;;;;;;;5.70;2.43;;;;;;;19.83;70.70;101426.66;5037164;28;20537;-70
2021/06/02 09:04:30;;;;;;;4.87;2.47;;;;;;;19.91;69.44;101417.47;5036749;28;20451;-71
2021/06/02 09:06:57;;;;;;;2.73;1.83;;;;;;;20.12;68.57;101417.34;5036668;28;20439;-70
2021/06/02 09:09:25;;;;;;;2.83;1.77;;;;;;;20.20;68.96;101423.88;5036541;28;20472;-69
2021/06/02 09:11:52;;;;;;;6.40;2.20;;;;;;;20.30;66.81;101422.63;5035906;28;20936;-67
2021/06/02 09:14:24;;;;;;;2.90;2.00;;;;;;;20.46;67.40;101425.47;5036584;28;20500;-69
2021/06/02 09:16:53;;;;;;;4.03;2.80;;;;;;;20.53;67.32;101423.72;5036419;28;20451;-68
2021/06/02 09:19:33;;;;;;;2.60;1.50;;;;;;;20.70;66.60;101419.09;5036309;28;20473;-69
2021/06/02 09:22:00;;;;;;;4.20;2.30;;;;;;;20.79;64.74;101411.50;5036594;28;20443;-70
2021/06/02 09:24:48;;;;;;;2.10;1.60;;;;;;;20.88;65.15;101423.97;5036376;28;20451;-70
2021/06/02 09:27:14;;;;;;;5.50;2.13;;;;;;;21.02;63.64;101409.78;5036389;28;20450;-70
2021/06/02 09:29:51;;;;;;;3.23;2.50;;;;;;;21.10;61.20;101417.09;5036333;28;20498;-70
2021/06/02 09:32:20;;;;;;;3.63;1.97;;;;;;;21.32;61.82;101420.44;5035854;28;20506;-69
2021/06/02 09:34:46;;;;;;;3.27;2.13;;;;;;;21.39;60.38;101413.19;5036154;28;20482;-70
2021/06/02 09:37:12;;;;;;;4.03;1.60;;;;;;;21.46;60.45;101420.81;5040166;28;20508;-70
2021/06/02 09:39:40;;;;;;;3.87;2.10;;;;;;;21.57;59.15;101421.91;5044235;28;20478;-70
2021/06/02 09:42:17;;;;;;;2.80;1.90;;;;;;;21.68;59.75;101422.16;5036258;28;20457;-69
2021/06/02 09:44:43;;;;;;;3.47;2.47;;;;;;;21.74;57.42;101431.78;5036186;28;20461;-70
2021/06/02 09:47:11;;;;;;;2.70;1.97;;;;;;;21.78;58.17;101418.88;5036083;28;20449;-71
2021/06/02 09:49:49;;;;;;;2.53;1.60;;;;;;;21.72;59.26;101425.00;5035537;28;20482;-70
2021/06/02 09:52:16;;;;;;;2.60;1.97;;;;;;;21.79;59.78;101426.00;5035615;28;20482;-71
2021/06/02 09:54:42;;;;;;;3.27;2.20;;;;;;;21.83;60.41;101426.88;5035793;28;20530;-70
2021/06/02 09:57:12;;;;;;;2.47;1.90;;;;;;;21.97;59.38;101425.63;5035745;28;20447;-70
2021/06/02 09:59:55;;;;;;;2.70;1.53;;;;;;;22.01;57.88;101432.03;5035533;28;20467;-70
2021/06/02 10:02:21;;;;;;;4.30;2.60;;;;;;;22.03;59.51;101436.03;5035544;28;20451;-69
2021/06/02 10:04:59;;;;;;;3.60;2.40;;;;;;;22.00;57.77;101431.25;5035651;28;20469;-70
2021/06/02 10:07:25;;;;;;;3.23;2.00;;;;;;;22.03;58.11;101427.75;5035663;28;20801;-70
2021/06/02 10:09:52;;;;;;;2.70;2.03;;;;;;;22.16;58.58;101422.94;5035334;28;20470;-70
2021/06/02 10:12:18;;;;;;;2.50;1.80;;;;;;;22.21;58.03;101430.94;5035382;28;20481;-70
2021/06/02 10:14:54;;;;;;;4.27;2.00;;;;;;;22.25;56.93;101426.31;5035320;28;20928;-70
2021/06/02 10:17:24;;;;;;;4.27;3.00;;;;;;;22.40;57.11;101433.75;5035450;28;20443;-70
2021/06/02 10:19:52;;;;;;;2.27;2.03;;;;;;;22.61;56.09;101433.41;5035246;28;20823;-70
2021/06/02 10:22:21;;;;;;;4.23;2.80;;;;;;;22.78;56.19;101437.69;5035366;28;20447;-70
2021/06/02 10:24:48;;;;;;;2.13;1.67;;;;;;;22.92;55.84;101432.50;5035125;28;20457;-71
2021/06/02 10:27:15;;;;;;;3.40;2.43;;;;;;;22.94;55.04;101432.13;5035023;28;20474;-71
2021/06/02 10:29:42;;;;;;;3.00;2.10;;;;;;;22.93;53.21;101436.03;5034979;28;20497;-70
2021/06/02 10:32:08;;;;;;;3.07;2.30;;;;;;;23.08;55.44;101451.75;5035203;28;20536;-70
2021/06/02 10:34:34;;;;;;;6.23;2.03;;;;;;;23.12;53.94;101449.88;5035193;28;20853;-70
2021/06/02 10:37:02;;;;;;;2.40;2.00;;;;;;;23.17;52.71;101443.25;5034935;28;20520;-71
2021/06/02 10:39:31;;;;;;;4.30;2.33;;;;;;;23.44;53.83;101446.09;5034632;28;20486;-68
2021/06/02 10:42:05;;;;;;;2.50;2.30;;;;;;;23.52;51.20;101445.06;5034869;28;20461;-71
2021/06/02 10:44:34;;;;;;;1.90;1.50;;;;;;;23.57;51.99;101448.31;5035025;28;20443;-71
2021/06/02 10:47:01;;;;;;;2.70;2.10;;;;;;;23.66;52.85;101454.44;5034902;28;20443;-70
2021/06/02 10:49:33;;;;;;;3.00;2.00;;;;;;;23.87;52.72;101442.94;5034573;28;20560;-70
2021/06/02 10:52:01;;;;;;;3.57;1.97;;;;;;;24.07;49.91;101446.38;5034838;28;20816;-70
2021/06/02 10:54:35;;;;;;;2.70;2.40;;;;;;;24.09;50.46;101446.81;5034777;28;20574;-70
2021/06/02 10:57:08;;;;;;;8.03;2.03;;;;;;;24.34;51.60;101455.47;5034630;28;20885;-70
2021/06/02 10:59:36;;;;;;;4.40;2.50;;;;;;;24.49;51.35;101450.19;5034471;28;20482;-70
2021/06/02 11:02:03;;;;;;;2.60;2.07;;;;;;;24.60;48.98;101446.38;5033560;28;20447;-70
2021/06/02 11:04:30;;;;;;;2.00;1.50;;;;;;;24.74;48.79;101447.72;5034620;28;20447;-70
2021/06/02 11:07:14;;;;;;;2.03;1.67;;;;;;;24.83;48.23;101451.81;5034421;28;20454;-70
2021/06/02 11:09:52;;;;;;;3.50;2.07;;;;;;;25.11;46.94;101451.38;5034547;28;20497;-70
2021/06/02 11:12:18;;;;;;;2.17;1.70;;;;;;;25.38;45.17;101440.97;5034196;28;20513;-70
2021/06/02 11:14:44;;;;;;;3.00;1.90;;;;;;;26.02;45.29;101443.50;5034428;28;20452;-71
2021/06/02 11:17:18;;;;;;;2.30;1.83;;;;;;;27.00;44.13;101449.19;5034319;28;21020;-71
2021/06/02 11:19:52;;;;;;;3.37;1.90;;;;;;;28.02;42.64;101451.72;5034376;28;20564;-70
2021/06/02 11:22:22;;;;;;;3.53;2.00;;;;;;;29.04;40.38;101454.63;5043831;28;20470;-70
2021/06/02 11:24:50;;;;;;;1.73;1.60;;;;;;;29.38;39.00;101464.00;5037686;28;20822;-71
2021/06/02 11:27:36;;;;;;;2.03;1.80;;;;;;;29.43;36.59;101459.97;5034082;28;20980;-70
2021/06/02 11:30:10;;;;;;;1.43;1.33;;;;;;;29.07;37.64;101467.78;5033961;28;20514;-70
2021/06/02 11:32:51;;;;;;;1.83;1.70;;;;;;;28.13;38.20;101444.94;5033882;28;20479;-71
2021/06/02 11:35:17;;;;;;;2.17;1.83;;;;;;;27.77;39.46;101441.41;5033814;28;20505;-71
2021/06/02 11:37:45;;;;;;;2.77;1.53;;;;;;;28.45;39.54;101443.31;5033828;28;20443;-70
2021/06/02 11:40:14;;;;;;;3.87;1.90;;;;;;;29.71;37.69;101449.84;5033758;28;20467;-70
2021/06/02 11:42:42;;;;;;;3.13;1.60;;;;;;;30.51;34.72;101449.44;5033881;28;20506;-70
2021/06/02 11:45:11;;;;;;;3.00;1.53;;;;;;;30.49;35.46;101449.06;5033807;28;20443;-71
2021/06/02 11:47:39;;;;;;;1.97;1.57;;;;;;;31.55;35.18;101456.44;5033496;28;20963;-70
2021/06/02 11:50:08;;;;;;;2.90;2.00;;;;;;;32.29;31.85;101451.56;5033394;28;20485;-70
2021/06/02 11:52:34;;;;;;;1.63;1.33;;;;;;;31.39;33.30;101454.31;5033768;28;20475;-71
2021/06/02 11:55:04;;;;;;;1.67;1.30;;;;;;;31.68;34.50;101446.22;5033563;28;20816;-70
2021/06/02 11:57:32;;;;;;;5.07;1.80;;;;;;;32.41;33.80;101447.38;5033840;28;20889;-70